Time;durP1;ratioP1;P1;durP2;ratioP2;P2;SDS_P1;SDS_P2;PMS_P1;PMS_P2;Temp;Humidity;BMP_temperature;BMP_pressure;BME280_temperature;BME280_humidity;BME280_pressure;Samples;Min_cycle;Max_cycle;Signal;HPM_P1;HPM_P2
2021/03/09 00:01:32;;;;;;;59.25;24.42;;;;;;;;;;5054251;28;20408;-65
2021/03/09 00:03:58;;;;;;;65.90;25.30;;;;;;;;;;5054320;28;20126;-65
2021/03/09 00:06:23;;;;;;;66.82;25.67;;;;;;;;;;5054359;28;20136;-65
2021/03/09 00:08:48;;;;;;;75.13;26.80;;;;;;;;;;5054408;28;20033;-65
2021/03/09 00:11:14;;;;;;;67.72;25.08;;;;;;;;;;5054156;28;20057;-65
2021/03/09 00:13:39;;;;;;;69.20;27.15;;;;;;;;;;5054799;28;20044;-64
2021/03/09 00:16:04;;;;;;;68.00;25.45;;;;;;;;;;5055225;28;20021;-65
2021/03/09 00:18:30;;;;;;;68.80;26.88;;;;;;;;;;5055688;28;20029;-65
2021/03/09 00:20:55;;;;;;;72.97;27.05;;;;;;;;;;5055423;28;20013;-64
2021/03/09 00:23:20;;;;;;;65.43;26.85;;;;;;;;;;5055554;28;20489;-65
2021/03/09 00:25:45;;;;;;;67.20;26.85;;;;;;;;;;5055302;28;20393;-65
2021/03/09 00:28:10;;;;;;;65.32;25.73;;;;;;;;;;5054898;28;20021;-64
2021/03/09 00:30:36;;;;;;;69.57;25.35;;;;;;;;;;5054933;28;20111;-65
2021/03/09 00:33:01;;;;;;;65.28;24.73;;;;;;;;;;5054023;28;20033;-64
2021/03/09 00:35:26;;;;;;;68.88;26.48;;;;;;;;;;5054423;28;20013;-64
2021/03/09 00:37:51;;;;;;;70.43;26.50;;;;;;;;;;5054986;28;20036;-65
2021/03/09 00:40:17;;;;;;;74.35;26.77;;;;;;;;;;5055084;28;20451;-64
2021/03/09 00:42:42;;;;;;;63.45;25.15;;;;;;;;;;5055237;28;20063;-65
2021/03/09 00:45:08;;;;;;;61.30;24.65;;;;;;;;;;5054740;28;20060;-65
2021/03/09 00:47:33;;;;;;;69.15;25.92;;;;;;;;;;5055174;28;20035;-65
2021/03/09 00:49:59;;;;;;;71.50;26.15;;;;;;;;;;5054963;28;20100;-64
2021/03/09 00:52:24;;;;;;;75.20;26.85;;;;;;;;;;5054711;28;20057;-65
2021/03/09 00:54:49;;;;;;;68.07;24.80;;;;;;;;;;5054822;28;20036;-64
2021/03/09 00:57:14;;;;;;;63.08;24.80;;;;;;;;;;5054899;28;20028;-64
2021/03/09 00:59:40;;;;;;;66.95;25.33;;;;;;;;;;5054566;28;20535;-64
2021/03/09 01:02:05;;;;;;;59.65;24.58;;;;;;;;;;5054685;28;20040;-64
2021/03/09 01:04:30;;;;;;;59.20;25.15;;;;;;;;;;5054544;28;20009;-64
2021/03/09 01:06:55;;;;;;;67.13;26.67;;;;;;;;;;5054583;28;20091;-64
2021/03/09 01:09:21;;;;;;;76.90;26.20;;;;;;;;;;5054683;28;20420;-65
2021/03/09 01:11:46;;;;;;;65.32;24.15;;;;;;;;;;5054153;28;20017;-65
2021/03/09 01:14:11;;;;;;;69.60;23.70;;;;;;;;;;5054626;28;20033;-64
2021/03/09 01:16:36;;;;;;;65.20;24.45;;;;;;;;;;5054491;28;20029;-65
2021/03/09 01:19:02;;;;;;;59.03;24.02;;;;;;;;;;5054229;28;20382;-64
2021/03/09 01:21:27;;;;;;;66.22;25.10;;;;;;;;;;5054009;28;20036;-65
2021/03/09 01:23:52;;;;;;;67.45;24.20;;;;;;;;;;5054121;28;20036;-65
2021/03/09 01:26:18;;;;;;;71.57;24.48;;;;;;;;;;5054188;28;20029;-65
2021/03/09 01:28:43;;;;;;;59.63;24.48;;;;;;;;;;5054318;28;20111;-64
2021/03/09 01:31:09;;;;;;;66.22;24.50;;;;;;;;;;5054146;28;20389;-65
2021/03/09 01:33:34;;;;;;;71.95;24.38;;;;;;;;;;5054231;28;20019;-64
2021/03/09 01:35:59;;;;;;;64.60;23.70;;;;;;;;;;5054342;28;20505;-64
2021/03/09 01:38:24;;;;;;;67.95;23.15;;;;;;;;;;5054159;28;20036;-65
2021/03/09 01:40:50;;;;;;;61.83;23.25;;;;;;;;;;5053960;28;20048;-65
2021/03/09 01:43:15;;;;;;;59.83;23.08;;;;;;;;;;5053926;28;20052;-64
2021/03/09 01:45:40;;;;;;;66.03;24.42;;;;;;;;;;5052746;28;20041;-65
2021/03/09 01:48:06;;;;;;;61.55;22.35;;;;;;;;;;5053940;28;20115;-64
2021/03/09 01:50:35;;;;;;;68.30;23.30;;;;;;;;;;5050625;28;20555;-65
2021/03/09 01:53:04;;;;;;;65.45;22.27;;;;;;;;;;5053173;28;20040;-64
2021/03/09 01:55:30;;;;;;;71.47;22.48;;;;;;;;;;5053709;28;20024;-64
2021/03/09 01:57:55;;;;;;;70.68;22.48;;;;;;;;;;5053710;28;20029;-64
2021/03/09 02:00:21;;;;;;;69.72;24.67;;;;;;;;;;5053347;28;20037;-64
2021/03/09 02:02:46;;;;;;;67.83;22.47;;;;;;;;;;5053702;28;20013;-64
2021/03/09 02:05:12;;;;;;;69.38;22.90;;;;;;;;;;5053406;28;20147;-64
2021/03/09 02:07:37;;;;;;;56.38;21.50;;;;;;;;;;5053391;28;20037;-64
2021/03/09 02:10:04;;;;;;;58.17;22.20;;;;;;;;;;5053357;28;20014;-64
2021/03/09 02:12:38;;;;;;;54.03;20.50;;;;;;;;;;5053415;28;20025;-64
2021/03/09 02:15:13;;;;;;;66.53;22.45;;;;;;;;;;5053286;28;20417;-65
2021/03/09 02:17:47;;;;;;;60.47;21.57;;;;;;;;;;5053506;28;20477;-64
2021/03/09 02:20:29;;;;;;;56.80;21.30;;;;;;;;;;5053172;28;20045;-64
2021/03/09 02:23:01;;;;;;;64.53;22.13;;;;;;;;;;5053342;28;20060;-64
2021/03/09 02:25:45;;;;;;;67.93;24.20;;;;;;;;;;5053094;28;20427;-64
2021/03/09 02:28:13;;;;;;;72.95;21.58;;;;;;;;;;5053161;28;20120;-64
2021/03/09 02:30:40;;;;;;;65.03;23.38;;;;;;;;;;5052427;28;20108;-65
2021/03/09 02:33:24;;;;;;;63.53;21.73;;;;;;;;;;5033212;28;20024;-64
2021/03/09 02:36:08;;;;;;;69.85;21.92;;;;;;;;;;5046621;28;20032;-64
2021/03/09 02:38:54;;;;;;;67.13;22.37;;;;;;;;;;5052170;28;20051;-64
2021/03/09 02:41:20;;;;;;;;;;;;;;;;;;5052903;28;20513;-64
2021/03/09 02:43:46;;;;;;;62.75;19.65;;;;;;;;;;5050726;28;20289;-64
2021/03/09 02:46:13;;;;;;;53.63;19.57;;;;;;;;;;5052449;28;20041;-64
2021/03/09 02:48:39;;;;;;;55.20;19.93;;;;;;;;;;5053007;28;20040;-64
2021/03/09 02:51:04;;;;;;;55.90;19.67;;;;;;;;;;5052446;28;20373;-64
2021/03/09 02:53:31;;;;;;;54.27;20.40;;;;;;;;;;5053031;28;20037;-64
2021/03/09 02:55:58;;;;;;;56.87;21.27;;;;;;;;;;5052557;28;20021;-65
2021/03/09 02:58:23;;;;;;;59.60;22.47;;;;;;;;;;5052901;28;20049;-64
2021/03/09 03:00:52;;;;;;;57.00;20.03;;;;;;;;;;5052210;28;20110;-65
2021/03/09 03:03:18;;;;;;;61.73;20.47;;;;;;;;;;5052805;28;20029;-64
2021/03/09 03:05:44;;;;;;;57.07;20.03;;;;;;;;;;5052561;28;20429;-64
2021/03/09 03:08:10;;;;;;;50.73;19.47;;;;;;;;;;5052851;28;20090;-64
2021/03/09 03:10:36;;;;;;;59.63;20.03;;;;;;;;;;5052639;28;20036;-64
2021/03/09 03:13:02;;;;;;;49.65;18.73;;;;;;;;;;5052678;28;20103;-64
2021/03/09 03:15:28;;;;;;;52.27;19.70;;;;;;;;;;5052668;28;20083;-64
2021/03/09 03:17:55;;;;;;;56.72;19.15;;;;;;;;;;5052701;28;20037;-65
2021/03/09 03:20:21;;;;;;;61.08;21.02;;;;;;;;;;5052631;28;20092;-64
2021/03/09 03:22:47;;;;;;;48.83;19.00;;;;;;;;;;5052682;28;20116;-65
2021/03/09 03:25:13;;;;;;;52.00;20.03;;;;;;;;;;5052444;28;20045;-64
2021/03/09 03:27:40;;;;;;;56.15;19.77;;;;;;;;;;5052728;28;20091;-64
2021/03/09 03:30:10;;;;;;;49.33;18.27;;;;;;;;;;5052413;28;20033;-65
2021/03/09 03:32:35;;;;;;;47.43;18.40;;;;;;;;;;5052643;28;20075;-64
2021/03/09 03:35:01;;;;;;;53.67;19.97;;;;;;;;;;5052446;28;20013;-65
2021/03/09 03:37:26;;;;;;;55.37;20.30;;;;;;;;;;5052482;28;20485;-64
2021/03/09 03:39:51;;;;;;;52.13;20.23;;;;;;;;;;5052516;28;20040;-64
2021/03/09 03:42:17;;;;;;;62.10;20.30;;;;;;;;;;5052345;28;20032;-65
2021/03/09 03:44:42;;;;;;;40.95;17.75;;;;;;;;;;5052506;28;20154;-64
2021/03/09 03:47:07;;;;;;;56.03;19.47;;;;;;;;;;5052274;28;20527;-64
2021/03/09 03:49:33;;;;;;;54.17;19.03;;;;;;;;;;5052515;28;20466;-64
2021/03/09 03:52:21;;;;;;;47.47;18.97;;;;;;;;;;5052258;28;20060;-64
2021/03/09 03:54:59;;;;;;;47.57;17.60;;;;;;;;;;5041599;28;20033;-65
2021/03/09 03:57:36;;;;;;;56.67;19.80;;;;;;;;;;5052278;28;20381;-64
2021/03/09 04:00:03;;;;;;;58.07;19.97;;;;;;;;;;5052159;28;20064;-64
2021/03/09 04:02:29;;;;;;;64.60;19.57;;;;;;;;;;5051936;28;20397;-64
2021/03/09 04:04:54;;;;;;;52.23;18.23;;;;;;;;;;5051889;28;20108;-64
2021/03/09 04:07:23;;;;;;;46.83;18.20;;;;;;;;;;5051910;28;20056;-64
2021/03/09 04:09:50;;;;;;;50.35;17.65;;;;;;;;;;5055139;28;20064;-64
2021/03/09 04:12:17;;;;;;;46.53;18.60;;;;;;;;;;5055431;28;20021;-64
2021/03/09 04:14:42;;;;;;;56.00;18.77;;;;;;;;;;5055249;28;20477;-64
2021/03/09 04:17:07;;;;;;;52.90;18.83;;;;;;;;;;5055547;28;20123;-64
2021/03/09 04:19:33;;;;;;;50.00;17.57;;;;;;;;;;5055651;28;20017;-64
2021/03/09 04:21:59;;;;;;;43.40;17.37;;;;;;;;;;5055454;28;20110;-64
2021/03/09 04:24:25;;;;;;;47.20;17.97;;;;;;;;;;5055536;28;20359;-64
2021/03/09 04:26:51;;;;;;;43.93;15.63;;;;;;;;;;5055285;28;20009;-64
2021/03/09 04:29:16;;;;;;;46.37;16.67;;;;;;;;;;5055564;28;20078;-64
2021/03/09 04:31:42;;;;;;;49.60;17.57;;;;;;;;;;5055133;28;20412;-64
2021/03/09 04:34:07;;;;;;;47.53;17.23;;;;;;;;;;5055188;28;20013;-64
2021/03/09 04:36:33;;;;;;;42.13;16.97;;;;;;;;;;5055253;28;20044;-64
2021/03/09 04:38:59;;;;;;;40.53;16.47;;;;;;;;;;5054963;28;20029;-64
2021/03/09 04:41:24;;;;;;;43.13;15.13;;;;;;;;;;5055157;28;20112;-64
2021/03/09 04:43:49;;;;;;;39.13;15.27;;;;;;;;;;5055157;28;20045;-64
2021/03/09 04:46:15;;;;;;;39.00;13.73;;;;;;;;;;5055021;28;20080;-64
2021/03/09 04:48:40;;;;;;;33.43;14.70;;;;;;;;;;5055169;28;20017;-64
2021/03/09 04:51:09;;;;;;;39.87;14.23;;;;;;;;;;5054945;28;20029;-64
2021/03/09 04:53:35;;;;;;;34.33;13.50;;;;;;;;;;5055104;28;20033;-64
2021/03/09 04:56:00;;;;;;;37.27;14.37;;;;;;;;;;5054837;28;20075;-64
2021/03/09 04:58:25;;;;;;;24.77;12.40;;;;;;;;;;5054979;28;20082;-64
2021/03/09 05:00:51;;;;;;;31.40;12.30;;;;;;;;;;5054445;28;20091;-64
2021/03/09 05:03:17;;;;;;;33.73;14.47;;;;;;;;;;5054882;28;20024;-64
2021/03/09 05:05:42;;;;;;;33.57;12.30;;;;;;;;;;5054590;28;20077;-64
2021/03/09 05:08:08;;;;;;;40.17;14.77;;;;;;;;;;5054757;28;20047;-64
2021/03/09 05:10:33;;;;;;;32.67;12.50;;;;;;;;;;5054566;28;20013;-64
2021/03/09 05:12:58;;;;;;;42.50;13.73;;;;;;;;;;5054559;28;20029;-64
2021/03/09 05:15:23;;;;;;;29.10;12.63;;;;;;;;;;5054202;28;20033;-65
2021/03/09 05:17:49;;;;;;;46.90;14.43;;;;;;;;;;5054626;28;20511;-64
2021/03/09 05:20:14;;;;;;;39.90;13.57;;;;;;;;;;5054106;28;20040;-64
2021/03/09 05:22:40;;;;;;;35.07;13.83;;;;;;;;;;5054364;28;20075;-64
2021/03/09 05:25:06;;;;;;;40.27;12.83;;;;;;;;;;5054625;28;20098;-64
2021/03/09 05:27:32;;;;;;;36.67;13.33;;;;;;;;;;5054306;28;20033;-64
2021/03/09 05:29:57;;;;;;;31.43;12.07;;;;;;;;;;5054327;28;20417;-64
2021/03/09 05:32:22;;;;;;;37.70;12.90;;;;;;;;;;5054121;28;20059;-64
2021/03/09 05:34:47;;;;;;;40.30;13.40;;;;;;;;;;5054194;28;20107;-64
2021/03/09 05:37:13;;;;;;;36.90;13.67;;;;;;;;;;5048253;28;20049;-64
2021/03/09 05:39:38;;;;;;;31.90;11.93;;;;;;;;;;5051793;28;20017;-64
2021/03/09 05:42:04;;;;;;;38.20;13.33;;;;;;;;;;5053144;28;20039;-64
2021/03/09 05:44:30;;;;;;;28.00;12.00;;;;;;;;;;5053658;28;20053;-64
2021/03/09 05:46:55;;;;;;;26.10;10.93;;;;;;;;;;5053726;28;20029;-64
2021/03/09 05:49:21;;;;;;;29.40;11.53;;;;;;;;;;5054049;28;20166;-64
2021/03/09 05:51:46;;;;;;;31.10;13.03;;;;;;;;;;5053682;28;20060;-64
2021/03/09 05:54:11;;;;;;;25.37;11.03;;;;;;;;;;5053692;28;20100;-64
2021/03/09 05:56:36;;;;;;;33.38;12.20;;;;;;;;;;5053701;28;20025;-64
2021/03/09 05:59:02;;;;;;;28.07;11.80;;;;;;;;;;5053785;28;20580;-64
2021/03/09 06:01:27;;;;;;;24.88;10.75;;;;;;;;;;5053656;28;20020;-64
2021/03/09 06:03:52;;;;;;;26.20;11.05;;;;;;;;;;5053716;28;20481;-64
2021/03/09 06:06:17;;;;;;;31.58;11.80;;;;;;;;;;5053417;28;20041;-64
2021/03/09 06:08:42;;;;;;;41.72;12.68;;;;;;;;;;5053657;28;20021;-64
2021/03/09 06:11:11;;;;;;;22.65;10.98;;;;;;;;;;5053043;28;20036;-64
2021/03/09 06:13:37;;;;;;;20.88;9.70;;;;;;;;;;5053556;28;20033;-64
2021/03/09 06:16:03;;;;;;;27.23;10.65;;;;;;;;;;5053018;28;20107;-64
2021/03/09 06:18:28;;;;;;;24.02;10.02;;;;;;;;;;5053467;28;20044;-64
2021/03/09 06:21:13;;;;;;;21.65;9.00;;;;;;;;;;5053291;28;20037;-64
2021/03/09 06:23:39;;;;;;;31.17;9.70;;;;;;;;;;5053175;28;20116;-64
2021/03/09 06:26:24;;;;;;;25.63;9.48;;;;;;;;;;5052785;28;20123;-64
2021/03/09 06:29:04;;;;;;;24.98;8.73;;;;;;;;;;5053219;28;20025;-64
2021/03/09 06:31:29;;;;;;;22.52;9.35;;;;;;;;;;5052662;28;20037;-64
2021/03/09 06:33:55;;;;;;;18.80;8.07;;;;;;;;;;5053230;28;20025;-64
2021/03/09 06:36:20;;;;;;;25.48;9.18;;;;;;;;;;5053172;28;20389;-64
2021/03/09 06:38:53;;;;;;;20.42;10.02;;;;;;;;;;5053143;28;20013;-64
2021/03/09 06:41:19;;;;;;;24.48;10.07;;;;;;;;;;5052801;28;20532;-64
2021/03/09 06:44:03;;;;;;;28.63;11.75;;;;;;;;;;5052906;28;20194;-64
2021/03/09 06:46:29;;;;;;;30.73;12.82;;;;;;;;;;5052555;28;20106;-64
2021/03/09 06:48:55;;;;;;;23.65;10.80;;;;;;;;;;5053018;28;20458;-64
2021/03/09 06:51:24;;;;;;;23.27;10.57;;;;;;;;;;5052986;28;20090;-64
2021/03/09 06:53:56;;;;;;;31.70;12.23;;;;;;;;;;5052916;28;20040;-64
2021/03/09 06:56:25;;;;;;;31.88;12.13;;;;;;;;;;5052907;28;20033;-64
2021/03/09 06:58:51;;;;;;;26.52;11.45;;;;;;;;;;5053126;28;20068;-64
2021/03/09 07:01:16;;;;;;;22.98;11.23;;;;;;;;;;5051863;28;20547;-64
2021/03/09 07:03:41;;;;;;;33.22;10.95;;;;;;;;;;5046400;28;20028;-64
2021/03/09 07:06:06;;;;;;;22.75;11.02;;;;;;;;;;5035098;28;20077;-64
2021/03/09 07:08:32;;;;;;;22.83;10.23;;;;;;;;;;5032706;28;20064;-64
2021/03/09 07:10:57;;;;;;;24.02;9.77;;;;;;;;;;5034083;28;20018;-66
2021/03/09 07:13:23;;;;;;;22.67;9.45;;;;;;;;;;5052892;28;20405;-65
2021/03/09 07:15:49;;;;;;;24.05;10.02;;;;;;;;;;5052478;28;20120;-65
2021/03/09 07:18:25;;;;;;;23.13;8.90;;;;;;;;;;5052667;28;20437;-65
2021/03/09 07:20:51;;;;;;;22.88;10.82;;;;;;;;;;5052688;28;20051;-66
2021/03/09 07:23:20;;;;;;;19.00;7.97;;;;;;;;;;5042641;28;20041;-65
2021/03/09 07:25:49;;;;;;;11.32;6.38;;;;;;;;;;5032713;28;20378;-65
2021/03/09 07:28:15;;;;;;;41.10;9.07;;;;;;;;;;5032773;28;20067;-65
2021/03/09 07:30:42;;;;;;;206.60;14.13;;;;;;;;;;5032762;28;20083;-65
2021/03/09 07:33:07;;;;;;;319.27;23.55;;;;;;;;;;5032266;28;21068;-66
2021/03/09 07:35:33;;;;;;;400.05;34.03;;;;;;;;;;5032259;28;20045;-65
2021/03/09 07:37:58;;;;;;;266.30;18.10;;;;;;;;;;5032473;28;20032;-66
2021/03/09 07:40:25;;;;;;;507.45;29.88;;;;;;;;;;5032630;28;20021;-66
2021/03/09 07:42:50;;;;;;;210.60;15.80;;;;;;;;;;5032210;28;20033;-67
2021/03/09 07:45:17;;;;;;;12.82;4.70;;;;;;;;;;5036459;28;20058;-66
2021/03/09 07:47:56;;;;;;;44.15;6.22;;;;;;;;;;5036385;28;20022;-66
2021/03/09 07:50:23;;;;;;;151.75;11.93;;;;;;;;;;5036271;28;20084;-67
2021/03/09 07:52:57;;;;;;;101.28;7.70;;;;;;;;;;5035711;28;20026;-67
2021/03/09 07:55:22;;;;;;;10.40;3.85;;;;;;;;;;5036194;28;20033;-66
2021/03/09 07:57:47;;;;;;;7.72;3.80;;;;;;;;;;5035876;28;20099;-65
2021/03/09 08:00:14;;;;;;;9.40;4.13;;;;;;;;;;5036048;28;20029;-64
2021/03/09 08:02:47;;;;;;;10.23;3.78;;;;;;;;;;5035965;28;20382;-64
2021/03/09 08:05:14;;;;;;;14.88;4.20;;;;;;;;;;5035706;28;20052;-65
2021/03/09 08:07:46;;;;;;;6.35;3.45;;;;;;;;;;5035791;28;20028;-65
2021/03/09 08:10:41;;;;;;;9.00;5.20;;;;;;;;;;5035924;28;20037;-65
2021/03/09 08:13:06;;;;;;;9.15;5.40;;;;;;;;;;5044162;28;20390;-65
2021/03/09 08:15:31;;;;;;;9.77;5.72;;;;;;;;;;5055813;28;20043;-65
2021/03/09 08:18:16;;;;;;;10.40;5.85;;;;;;;;;;5035975;28;20031;-65
2021/03/09 08:20:48;;;;;;;12.38;8.15;;;;;;;;;;5035617;28;20156;-65
2021/03/09 08:23:35;;;;;;;14.70;8.07;;;;;;;;;;5035596;28;20363;-65
2021/03/09 08:26:04;;;;;;;10.70;7.93;;;;;;;;;;5035486;28;20045;-65
2021/03/09 08:28:36;;;;;;;7.30;3.97;;;;;;;;;;5035696;28;20033;-65
2021/03/09 08:31:11;;;;;;;7.70;3.88;;;;;;;;;;5035157;28;20179;-65
2021/03/09 08:33:36;;;;;;;5.85;3.53;;;;;;;;;;5035244;28;20474;-65
2021/03/09 08:36:21;;;;;;;4.68;3.15;;;;;;;;;;5035347;28;20096;-65
2021/03/09 08:39:05;;;;;;;5.68;3.20;;;;;;;;;;5035394;28;20195;-65
2021/03/09 08:41:37;;;;;;;5.75;2.88;;;;;;;;;;5046160;28;20512;-67
2021/03/09 08:44:15;;;;;;;5.13;3.17;;;;;;;;;;5054080;28;20053;-67
2021/03/09 08:47:05;;;;;;;7.85;3.55;;;;;;;;;;5054690;28;20033;-67
2021/03/09 08:49:36;;;;;;;7.35;4.03;;;;;;;;;;5054927;28;20111;-68
2021/03/09 08:52:01;;;;;;;6.32;3.47;;;;;;;;;;5054719;28;20040;-68
2021/03/09 08:54:29;;;;;;;8.32;3.40;;;;;;;;;;5054635;28;20033;-65
2021/03/09 08:56:55;;;;;;;8.50;3.70;;;;;;;;;;5054822;28;20021;-65
2021/03/09 08:59:22;;;;;;;10.30;4.50;;;;;;;;;;5052199;28;20513;-65
2021/03/09 09:01:47;;;;;;;9.63;4.97;;;;;;;;;;5034920;28;20037;-65
2021/03/09 09:04:16;;;;;;;10.85;5.70;;;;;;;;;;5034559;28;20022;-65
2021/03/09 09:06:42;;;;;;;10.02;5.93;;;;;;;;;;5049038;28;20045;-66
2021/03/09 09:09:07;;;;;;;9.50;5.50;;;;;;;;;;5054737;28;20040;-66
2021/03/09 09:11:32;;;;;;;7.35;5.10;;;;;;;;;;5054535;28;20020;-66
2021/03/09 09:13:58;;;;;;;12.25;5.80;;;;;;;;;;5049840;28;20060;-65
2021/03/09 09:16:23;;;;;;;9.25;5.13;;;;;;;;;;5053868;28;20033;-65
2021/03/09 09:18:48;;;;;;;9.80;5.22;;;;;;;;;;5054012;28;20083;-66
2021/03/09 09:21:14;;;;;;;9.30;5.10;;;;;;;;;;5048516;28;20456;-66
2021/03/09 09:23:39;;;;;;;8.60;5.30;;;;;;;;;;5044232;28;20036;-66
2021/03/09 09:26:04;;;;;;;11.30;5.22;;;;;;;;;;5048842;28;20029;-66
2021/03/09 09:28:30;;;;;;;11.52;5.72;;;;;;;;;;5052330;28;20025;-66
2021/03/09 09:30:59;;;;;;;12.05;5.50;;;;;;;;;;5044880;28;20036;-65
2021/03/09 09:33:28;;;;;;;12.38;6.53;;;;;;;;;;5050280;28;20021;-65
2021/03/09 09:35:54;;;;;;;15.35;6.18;;;;;;;;;;5051044;28;20035;-66
2021/03/09 09:38:19;;;;;;;15.60;6.60;;;;;;;;;;5050333;28;20025;-66
2021/03/09 09:41:13;;;;;;;11.77;6.82;;;;;;;;;;5050754;28;20024;-66
2021/03/09 09:43:39;;;;;;;14.23;7.10;;;;;;;;;;5046445;28;20055;-65
2021/03/09 09:46:05;;;;;;;17.73;7.68;;;;;;;;;;5049243;28;20033;-66
2021/03/09 09:48:32;;;;;;;13.95;7.75;;;;;;;;;;5049543;28;20040;-66
2021/03/09 09:50:58;;;;;;;16.35;7.85;;;;;;;;;;5048610;28;20040;-66
2021/03/09 09:53:33;;;;;;;14.20;7.20;;;;;;;;;;5035267;28;20033;-66
2021/03/09 09:55:59;;;;;;;11.82;6.22;;;;;;;;;;5024637;28;20379;-66
2021/03/09 09:58:44;;;;;;;16.70;7.78;;;;;;;;;;5034178;28;20091;-66
2021/03/09 10:01:10;;;;;;;11.13;7.32;;;;;;;;;;5050081;28;20033;-66
2021/03/09 10:03:48;;;;;;;11.70;7.03;;;;;;;;;;5050211;28;20371;-66
2021/03/09 10:06:15;;;;;;;11.25;7.25;;;;;;;;;;5049419;28;20762;-66
2021/03/09 10:08:40;;;;;;;18.75;7.78;;;;;;;;;;5049719;28;20017;-66
2021/03/09 10:11:05;;;;;;;15.50;7.32;;;;;;;;;;5048732;28;20032;-65
2021/03/09 10:13:30;;;;;;;15.55;6.88;;;;;;;;;;5050170;28;20120;-65
2021/03/09 10:15:55;;;;;;;14.70;7.05;;;;;;;;;;5038130;28;20106;-65
2021/03/09 10:18:31;;;;;;;14.18;7.47;;;;;;;;;;5046217;28;20086;-66
2021/03/09 10:21:04;;;;;;;14.55;7.40;;;;;;;;;;5046188;28;20056;-65
2021/03/09 10:23:30;;;;;;;9.18;6.22;;;;;;;;;;5051766;28;20024;-65
2021/03/09 10:26:04;;;;;;;15.43;7.40;;;;;;;;;;5056763;28;20036;-65
2021/03/09 10:28:31;;;;;;;14.30;7.07;;;;;;;;;;5059976;28;20032;-67
2021/03/09 10:30:56;;;;;;;13.95;7.75;;;;;;;;;;5047219;28;20115;-66
2021/03/09 10:33:22;;;;;;;13.18;7.03;;;;;;;;;;5046240;28;20513;-68
2021/03/09 10:36:04;;;;;;;17.08;7.00;;;;;;;;;;5049073;28;20025;-67
2021/03/09 10:38:30;;;;;;;16.13;7.63;;;;;;;;;;5058360;28;20097;-66
2021/03/09 10:40:55;;;;;;;12.55;7.43;;;;;;;;;;5021420;28;20486;-66
2021/03/09 10:43:39;;;;;;;17.33;8.43;;;;;;;;;;5003269;28;20069;-66
2021/03/09 10:46:04;;;;;;;13.02;7.22;;;;;;;;;;4989271;28;20535;-66
2021/03/09 10:48:30;;;;;;;22.77;7.75;;;;;;;;;;4991562;28;20109;-68
2021/03/09 10:50:55;;;;;;;13.95;7.55;;;;;;;;;;4990739;28;20458;-66
2021/03/09 10:53:20;;;;;;;14.25;7.85;;;;;;;;;;4988750;28;20105;-67
2021/03/09 10:55:45;;;;;;;17.15;7.95;;;;;;;;;;4994031;28;20133;-66
2021/03/09 10:58:11;;;;;;;14.63;7.53;;;;;;;;;;4992814;28;20054;-66
2021/03/09 11:00:36;;;;;;;20.67;8.15;;;;;;;;;;4999773;28;20054;-66
2021/03/09 11:03:01;;;;;;;17.35;8.70;;;;;;;;;;4990093;28;20823;-66
2021/03/09 11:05:26;;;;;;;16.08;8.25;;;;;;;;;;5001079;28;20378;-67
2021/03/09 11:07:52;;;;;;;14.70;7.57;;;;;;;;;;4995101;28;20022;-67
2021/03/09 11:10:17;;;;;;;15.35;7.03;;;;;;;;;;4992114;28;20044;-67
2021/03/09 11:12:42;;;;;;;12.88;6.00;;;;;;;;;;5001112;28;20032;-66
2021/03/09 11:15:08;;;;;;;9.43;4.20;;;;;;;;;;5006616;28;20526;-66
2021/03/09 11:17:34;;;;;;;17.20;5.60;;;;;;;;;;4997511;28;20034;-66
2021/03/09 11:19:59;;;;;;;7.90;3.30;;;;;;;;;;4994776;28;20328;-66
2021/03/09 11:22:24;;;;;;;9.90;3.08;;;;;;;;;;4996408;28;20039;-67
2021/03/09 11:24:49;;;;;;;5.63;2.70;;;;;;;;;;5006027;28;20034;-66
2021/03/09 11:27:15;;;;;;;7.43;2.58;;;;;;;;;;4993987;28;20022;-66
2021/03/09 11:29:40;;;;;;;13.60;4.97;;;;;;;;;;5003555;28;20129;-66
2021/03/09 11:32:06;;;;;;;9.35;4.18;;;;;;;;;;4998042;28;20029;-67
2021/03/09 11:34:31;;;;;;;8.32;4.50;;;;;;;;;;4995444;28;20041;-67
2021/03/09 11:36:57;;;;;;;14.70;5.45;;;;;;;;;;5005422;28;20064;-67
2021/03/09 11:39:22;;;;;;;15.68;6.72;;;;;;;;;;4994335;28;20053;-67
2021/03/09 11:41:48;;;;;;;11.75;6.80;;;;;;;;;;5001659;28;20026;-67
2021/03/09 11:44:14;;;;;;;10.10;5.55;;;;;;;;;;5002122;28;20554;-66
2021/03/09 11:46:39;;;;;;;13.07;5.35;;;;;;;;;;4995246;28;20046;-67
2021/03/09 11:49:04;;;;;;;11.80;5.55;;;;;;;;;;5005300;28;20022;-67
2021/03/09 11:51:30;;;;;;;11.93;6.50;;;;;;;;;;5004034;28;20089;-66
2021/03/09 11:53:55;;;;;;;12.15;7.18;;;;;;;;;;4991181;28;20046;-67
2021/03/09 11:56:20;;;;;;;7.28;4.50;;;;;;;;;;4996856;28;20530;-67
2021/03/09 11:58:47;;;;;;;8.45;4.15;;;;;;;;;;4994047;28;20084;-66
2021/03/09 12:01:12;;;;;;;7.03;3.60;;;;;;;;;;5008059;28;20112;-67
2021/03/09 12:03:38;;;;;;;5.07;3.03;;;;;;;;;;5009055;28;20097;-67
2021/03/09 12:06:03;;;;;;;7.60;4.95;;;;;;;;;;4999153;28;20073;-67
2021/03/09 12:08:28;;;;;;;14.25;7.03;;;;;;;;;;5002997;28;20030;-66
2021/03/09 12:10:53;;;;;;;13.02;7.18;;;;;;;;;;5008213;28;20074;-67
2021/03/09 12:13:19;;;;;;;9.30;5.03;;;;;;;;;;5005457;28;20414;-67
2021/03/09 12:15:44;;;;;;;9.43;5.32;;;;;;;;;;4996642;28;20551;-66
2021/03/09 12:18:09;;;;;;;15.80;7.07;;;;;;;;;;4998291;28;20048;-67
2021/03/09 12:20:35;;;;;;;11.95;4.15;;;;;;;;;;4997479;28;20109;-67
2021/03/09 12:23:00;;;;;;;10.43;5.05;;;;;;;;;;4991825;28;20066;-67
2021/03/09 12:25:25;;;;;;;15.73;6.53;;;;;;;;;;5004348;28;20034;-66
2021/03/09 12:27:51;;;;;;;18.50;7.63;;;;;;;;;;4986330;28;20467;-67
2021/03/09 12:30:16;;;;;;;13.18;7.57;;;;;;;;;;4989521;28;20545;-67
2021/03/09 12:32:42;;;;;;;11.50;6.55;;;;;;;;;;4987084;28;20106;-67
2021/03/09 12:35:08;;;;;;;14.02;6.88;;;;;;;;;;5004832;28;20037;-66
2021/03/09 12:37:33;;;;;;;15.77;7.45;;;;;;;;;;4994897;28;20041;-67
2021/03/09 12:39:59;;;;;;;14.80;7.38;;;;;;;;;;5005597;28;20022;-66
2021/03/09 12:42:24;;;;;;;13.35;7.28;;;;;;;;;;5001086;28;20137;-66
2021/03/09 12:44:50;;;;;;;12.63;7.15;;;;;;;;;;5002394;28;20888;-66
2021/03/09 12:47:16;;;;;;;14.35;6.90;;;;;;;;;;5005845;28;20068;-66
2021/03/09 12:49:41;;;;;;;12.80;6.00;;;;;;;;;;5008850;28;20030;-66
2021/03/09 12:52:06;;;;;;;16.63;6.63;;;;;;;;;;5008313;28;20128;-67
2021/03/09 12:54:32;;;;;;;11.07;6.13;;;;;;;;;;4994368;28;20027;-67
2021/03/09 12:56:57;;;;;;;12.00;6.38;;;;;;;;;;5004703;28;20521;-66
2021/03/09 12:59:22;;;;;;;13.20;6.45;;;;;;;;;;4988944;28;20050;-67
2021/03/09 13:01:47;;;;;;;12.27;6.75;;;;;;;;;;4990022;28;20021;-66
2021/03/09 13:04:13;;;;;;;11.30;5.72;;;;;;;;;;4989623;28;20041;-67
2021/03/09 13:06:38;;;;;;;11.98;6.18;;;;;;;;;;4996252;28;20052;-66
2021/03/09 13:09:05;;;;;;;14.50;6.38;;;;;;;;;;4989765;28;20022;-67
2021/03/09 13:11:30;;;;;;;10.73;6.50;;;;;;;;;;4987423;28;20030;-66
2021/03/09 13:13:56;;;;;;;13.05;6.15;;;;;;;;;;4988296;28;20481;-66
2021/03/09 13:16:22;;;;;;;12.32;6.00;;;;;;;;;;4987271;28;20061;-66
2021/03/09 13:18:47;;;;;;;15.20;6.85;;;;;;;;;;4987437;28;20022;-66
2021/03/09 13:21:14;;;;;;;18.17;6.30;;;;;;;;;;4987910;28;20155;-67
2021/03/09 13:23:39;;;;;;;15.35;6.88;;;;;;;;;;4986722;28;20097;-66
2021/03/09 13:26:04;;;;;;;15.18;6.47;;;;;;;;;;4995738;28;20388;-66
2021/03/09 13:28:29;;;;;;;11.18;5.70;;;;;;;;;;5001087;28;20070;-66
2021/03/09 13:30:55;;;;;;;11.35;5.60;;;;;;;;;;4991038;28;20033;-66
2021/03/09 13:33:20;;;;;;;17.45;6.78;;;;;;;;;;4996128;28;20030;-67
2021/03/09 13:35:45;;;;;;;13.98;5.93;;;;;;;;;;4998317;28;20054;-67
2021/03/09 13:38:11;;;;;;;10.00;5.80;;;;;;;;;;4987840;28;20120;-67
2021/03/09 13:40:36;;;;;;;13.15;6.90;;;;;;;;;;4987756;28;20062;-66
2021/03/09 13:43:02;;;;;;;10.30;5.90;;;;;;;;;;4987544;28;20038;-66
2021/03/09 13:45:28;;;;;;;10.18;5.72;;;;;;;;;;4987301;28;20046;-66
2021/03/09 13:47:53;;;;;;;9.00;5.38;;;;;;;;;;4995401;28;20497;-66
2021/03/09 13:50:18;;;;;;;9.07;4.80;;;;;;;;;;5007042;28;20162;-66
2021/03/09 13:52:43;;;;;;;12.05;5.30;;;;;;;;;;5006002;28;20048;-66
2021/03/09 13:55:10;;;;;;;10.35;5.18;;;;;;;;;;4990921;28;20034;-67
2021/03/09 13:57:35;;;;;;;11.88;5.35;;;;;;;;;;5000747;28;20041;-66
2021/03/09 14:00:00;;;;;;;9.02;5.28;;;;;;;;;;4987232;28;20026;-66
2021/03/09 14:02:26;;;;;;;11.90;5.63;;;;;;;;;;4987090;28;20061;-67
2021/03/09 14:04:51;;;;;;;8.30;4.53;;;;;;;;;;5004481;28;20091;-66
2021/03/09 14:07:16;;;;;;;8.18;4.80;;;;;;;;;;4987442;28;21093;-66
2021/03/09 14:09:41;;;;;;;10.98;4.85;;;;;;;;;;4987298;28;20031;-67
2021/03/09 14:12:07;;;;;;;11.07;5.18;;;;;;;;;;4995313;28;20474;-66
2021/03/09 14:14:33;;;;;;;8.43;4.57;;;;;;;;;;4993190;28;20108;-66
2021/03/09 14:16:59;;;;;;;16.35;5.47;;;;;;;;;;5004123;28;20134;-67
2021/03/09 14:19:24;;;;;;;12.15;6.22;;;;;;;;;;4992655;28;20041;-67
2021/03/09 14:21:49;;;;;;;10.00;5.50;;;;;;;;;;4998577;28;20527;-66
2021/03/09 14:24:15;;;;;;;9.77;4.93;;;;;;;;;;4998702;28;20037;-67
2021/03/09 14:26:40;;;;;;;7.55;4.82;;;;;;;;;;4991233;28;20056;-67